createdAt,value
2018-09-02T04:08:06.776Z,5.23
2018-09-02T04:18:09.299Z,5.50
2018-09-02T04:28:12.844Z,5.77
2018-09-02T04:38:20.160Z,6.10
2018-09-02T04:48:22.663Z,5.10
2018-09-02T04:58:40.126Z,4.50
2018-09-02T05:08:42.763Z,5.10
2018-09-02T05:18:45.355Z,5.30
2018-09-02T05:28:47.841Z,4.80
2018-09-02T05:39:04.041Z,3.80
2018-09-02T05:49:06.643Z,6.70
2018-09-02T05:59:09.184Z,4.60
2018-09-02T06:09:11.740Z,4.50
2018-09-02T06:19:17.822Z,4.00
2018-09-02T06:29:20.782Z,3.70
2018-09-02T06:39:24.327Z,3.33
2018-09-02T06:49:29.201Z,3.30
2018-09-02T06:59:31.931Z,3.50
2018-09-02T07:09:34.583Z,3.07
2018-09-02T07:19:38.344Z,3.30
2018-09-02T07:29:41.880Z,2.70
2018-09-02T07:39:44.724Z,3.60
2018-09-02T07:49:47.208Z,3.10
2018-09-02T07:59:59.231Z,2.80
2018-09-02T08:10:01.799Z,2.90
2018-09-02T08:20:04.726Z,3.00
2018-09-02T08:30:08.081Z,3.20
2018-09-02T08:40:12.769Z,3.33
2018-09-02T08:50:19.129Z,3.50
2018-09-02T09:00:27.831Z,3.97
2018-09-02T09:10:30.345Z,3.83
2018-09-02T09:20:32.945Z,4.37
2018-09-02T09:30:35.519Z,4.00
2018-09-02T09:40:38.067Z,3.00
2018-09-02T09:50:42.730Z,3.60
2018-09-02T10:00:48.339Z,2.97
2018-09-02T10:10:50.959Z,2.70
2018-09-02T10:20:54.236Z,2.40
2018-09-02T10:30:56.963Z,2.20
2018-09-02T10:41:05.281Z,1.80
2018-09-02T10:51:08.154Z,2.40
2018-09-02T11:01:12.968Z,2.50
2018-09-02T11:11:15.963Z,3.10
2018-09-02T11:21:24.816Z,2.20
2018-09-02T11:31:30.159Z,2.70
2018-09-02T11:41:36.341Z,2.73
2018-09-02T11:51:39.979Z,2.90
2018-09-02T12:01:46.188Z,2.53
2018-09-02T12:11:49.823Z,3.17
2018-09-02T12:21:54.359Z,3.10
2018-09-02T12:32:01.569Z,3.10
2018-09-02T12:42:12.176Z,3.50
2018-09-02T12:52:15.005Z,2.90
2018-09-02T13:02:17.891Z,2.90
2018-09-02T13:12:20.487Z,2.50
2018-09-02T13:22:23.589Z,3.30
2018-09-02T13:32:31.851Z,2.97
2018-09-02T13:42:34.495Z,3.07
2018-09-02T13:52:38.064Z,3.80
2018-09-02T14:02:42.659Z,3.33
2018-09-02T14:12:46.307Z,4.60
2018-09-02T14:22:49.999Z,4.20
2018-09-02T14:32:52.567Z,5.43
2018-09-02T14:42:55.360Z,5.77
2018-09-02T14:52:58.289Z,6.20
2018-09-02T15:03:01.957Z,5.83
2018-09-02T15:13:04.515Z,6.43
2018-09-02T15:23:07.025Z,8.30
2018-09-02T15:33:13.730Z,8.13
2018-09-02T15:43:17.400Z,6.40
2018-09-02T15:53:37.988Z,7.00
2018-09-02T16:03:40.717Z,7.30
2018-09-02T16:13:43.240Z,7.90
2018-09-02T16:23:46.968Z,7.40
2018-09-02T16:33:49.677Z,7.60
2018-09-02T16:43:52.220Z,8.20
2018-09-02T16:53:54.844Z,8.43
2018-09-02T17:04:00.552Z,8.00
2018-09-02T17:14:03.102Z,7.90
2018-09-02T17:24:13.893Z,8.60
2018-09-02T17:34:16.679Z,9.30
2018-09-02T17:44:20.335Z,8.50
2018-09-02T17:54:23.025Z,8.20
2018-09-02T18:04:26.630Z,8.60
2018-09-02T18:14:29.820Z,9.27
2018-09-02T18:24:33.393Z,11.80
2018-09-02T18:34:37.333Z,9.83
2018-09-02T18:44:39.889Z,9.47
2018-09-02T18:54:43.349Z,10.30
2018-09-02T19:04:54.809Z,10.57
2018-09-02T19:15:12.139Z,11.70
2018-09-02T19:25:15.029Z,11.43
2018-09-02T19:35:17.577Z,11.70
2018-09-02T19:45:20.138Z,12.10
2018-09-02T19:55:23.165Z,12.07
2018-09-02T20:05:26.056Z,12.40
2018-09-02T20:15:28.914Z,13.00
2018-09-02T20:25:31.663Z,12.13
2018-09-02T20:35:37.899Z,12.57
2018-09-02T20:45:41.932Z,12.40
2018-09-02T20:55:49.360Z,11.47
2018-09-02T21:05:52.082Z,12.67
2018-09-02T21:15:54.639Z,13.30
2018-09-02T21:25:57.242Z,13.20
2018-09-02T21:36:00.796Z,13.73
2018-09-02T21:46:03.339Z,13.70
2018-09-02T21:56:07.120Z,15.53
2018-09-02T22:06:09.623Z,14.17
2018-09-02T22:16:12.250Z,15.17
2018-09-02T22:26:27.906Z,13.70
2018-09-02T22:36:54.168Z,14.10
2018-09-02T22:46:57.789Z,14.33
2018-09-02T22:57:18.748Z,15.80
2018-09-02T23:07:21.337Z,14.00
2018-09-02T23:17:30.725Z,14.40
2018-09-02T23:27:39.384Z,17.27
2018-09-02T23:37:41.940Z,16.90
2018-09-02T23:47:44.476Z,20.57
2018-09-02T23:57:57.412Z,18.80
